sensor_id;sensor_type;location;lat;lon;timestamp;pressure;altitude;pressure_sealevel;temperature;humidity
11808;BME280;5961;42.640;23.380;2024-03-07T00:00:56;93821.44;;;9.90;100.00
11808;BME280;5961;42.640;23.380;2024-03-07T00:03:25;93819.78;;;9.85;100.00
11808;BME280;5961;42.640;23.380;2024-03-07T00:05:52;93821.44;;;9.90;100.00
11808;BME280;5961;42.640;23.380;2024-03-07T00:08:18;93822.22;;;9.90;100.00
11808;BME280;5961;42.640;23.380;2024-03-07T00:10:45;93809.50;;;9.84;100.00
11808;BME280;5961;42.640;23.380;2024-03-07T00:13:13;93812.03;;;9.80;100.00
11808;BME280;5961;42.640;23.380;2024-03-07T00:15:40;93809.63;;;9.75;100.00
11808;BME280;5961;42.640;23.380;2024-03-07T00:18:06;93814.16;;;9.75;100.00
11808;BME280;5961;42.640;23.380;2024-03-07T00:20:33;93808.06;;;9.74;100.00
11808;BME280;5961;42.640;23.380;2024-03-07T00:23:00;93820.66;;;9.77;100.00
11808;BME280;5961;42.640;23.380;2024-03-07T00:25:28;93813.47;;;9.78;100.00
11808;BME280;5961;42.640;23.380;2024-03-07T00:27:56;93805.41;;;9.74;100.00
11808;BME280;5961;42.640;23.380;2024-03-07T00:30:30;93807.81;;;9.79;100.00
11808;BME280;5961;42.640;23.380;2024-03-07T00:32:57;93798.44;;;9.82;100.00
11808;BME280;5961;42.640;23.380;2024-03-07T00:35:24;93802.19;;;9.81;100.00
11808;BME280;5961;42.640;23.380;2024-03-07T00:37:50;93788.50;;;9.79;100.00
11808;BME280;5961;42.640;23.380;2024-03-07T00:40:17;93802.53;;;9.79;100.00
11808;BME280;5961;42.640;23.380;2024-03-07T00:42:44;93801.78;;;9.79;100.00
11808;BME280;5961;42.640;23.380;2024-03-07T00:45:11;93803.53;;;9.75;100.00
11808;BME280;5961;42.640;23.380;2024-03-07T00:47:39;93796.66;;;9.74;100.00
11808;BME280;5961;42.640;23.380;2024-03-07T00:50:07;93795.81;;;9.70;100.00
11808;BME280;5961;42.640;23.380;2024-03-07T00:52:34;93798.88;;;9.72;100.00
11808;BME280;5961;42.640;23.380;2024-03-07T00:55:01;93785.84;;;9.67;100.00
11808;BME280;5961;42.640;23.380;2024-03-07T00:57:28;93801.09;;;9.70;100.00
11808;BME280;5961;42.640;23.380;2024-03-07T00:59:55;93788.94;;;9.69;100.00
11808;BME280;5961;42.640;23.380;2024-03-07T01:02:21;93793.16;;;9.70;100.00
11808;BME280;5961;42.640;23.380;2024-03-07T01:04:50;93787.84;;;9.70;100.00
11808;BME280;5961;42.640;23.380;2024-03-07T01:07:16;93793.81;;;9.67;100.00
11808;BME280;5961;42.640;23.380;2024-03-07T01:09:43;93781.97;;;9.64;100.00
11808;BME280;5961;42.640;23.380;2024-03-07T01:12:09;93784.97;;;9.63;100.00
11808;BME280;5961;42.640;23.380;2024-03-07T01:14:36;93774.34;;;9.63;100.00
11808;BME280;5961;42.640;23.380;2024-03-07T01:17:03;93774.22;;;9.59;100.00
11808;BME280;5961;42.640;23.380;2024-03-07T01:19:32;93774.66;;;9.61;100.00
11808;BME280;5961;42.640;23.380;2024-03-07T01:22:00;93749.38;;;9.52;100.00
11808;BME280;5961;42.640;23.380;2024-03-07T01:24:27;93766.94;;;9.56;100.00
11808;BME280;5961;42.640;23.380;2024-03-07T01:26:53;93766.63;;;9.58;100.00
11808;BME280;5961;42.640;23.380;2024-03-07T01:29:20;93758.84;;;9.53;100.00
11808;BME280;5961;42.640;23.380;2024-03-07T01:31:48;93753.44;;;9.49;100.00
11808;BME280;5961;42.640;23.380;2024-03-07T01:34:14;93741.84;;;9.42;100.00
11808;BME280;5961;42.640;23.380;2024-03-07T01:36:41;93758.84;;;9.53;100.00
11808;BME280;5961;42.640;23.380;2024-03-07T01:39:09;93758.06;;;9.52;100.00
11808;BME280;5961;42.640;23.380;2024-03-07T01:41:36;93754.69;;;9.52;100.00
11808;BME280;5961;42.640;23.380;2024-03-07T01:44:03;93752.56;;;9.45;100.00
11808;BME280;5961;42.640;23.380;2024-03-07T01:46:30;93755.78;;;9.51;100.00
11808;BME280;5961;42.640;23.380;2024-03-07T01:48:57;93757.31;;;9.52;100.00
11808;BME280;5961;42.640;23.380;2024-03-07T01:51:25;93748.91;;;9.50;100.00
11808;BME280;5961;42.640;23.380;2024-03-07T01:53:52;93734.19;;;9.40;100.00
11808;BME280;5961;42.640;23.380;2024-03-07T01:56:21;93757.53;;;9.47;100.00
11808;BME280;5961;42.640;23.380;2024-03-07T01:58:49;93750.22;;;9.44;100.00
11808;BME280;5961;42.640;23.380;2024-03-07T02:01:16;93757.53;;;9.34;100.00
11808;BME280;5961;42.640;23.380;2024-03-07T02:03:43;93723.38;;;9.09;100.00
11808;BME280;5961;42.640;23.380;2024-03-07T02:06:10;93750.03;;;9.24;100.00
11808;BME280;5961;42.640;23.380;2024-03-07T02:08:37;93751.53;;;9.13;100.00
11808;BME280;5961;42.640;23.380;2024-03-07T02:11:04;93755.28;;;9.00;100.00
11808;BME280;5961;42.640;23.380;2024-03-07T02:13:32;93772.00;;;8.80;98.80
11808;BME280;5961;42.640;23.380;2024-03-07T02:16:00;93765.66;;;8.60;99.75
11808;BME280;5961;42.640;23.380;2024-03-07T02:18:27;93767.06;;;8.58;100.00
11808;BME280;5961;42.640;23.380;2024-03-07T02:20:55;93765.97;;;8.59;100.00
11808;BME280;5961;42.640;23.380;2024-03-07T02:23:21;93762.56;;;8.38;99.73
11808;BME280;5961;42.640;23.380;2024-03-07T02:25:48;93764.22;;;8.21;100.00
11808;BME280;5961;42.640;23.380;2024-03-07T02:28:15;93763.25;;;8.26;100.00
11808;BME280;5961;42.640;23.380;2024-03-07T02:30:41;93758.34;;;8.16;100.00
11808;BME280;5961;42.640;23.380;2024-03-07T02:33:10;93754.66;;;8.08;100.00
11808;BME280;5961;42.640;23.380;2024-03-07T02:35:37;93703.53;;;7.75;100.00
11808;BME280;5961;42.640;23.380;2024-03-07T02:38:05;93744.06;;;8.08;100.00
11808;BME280;5961;42.640;23.380;2024-03-07T02:40:32;93743.31;;;8.08;100.00
11808;BME280;5961;42.640;23.380;2024-03-07T02:42:59;93753.88;;;8.08;100.00
11808;BME280;5961;42.640;23.380;2024-03-07T02:45:27;93752.09;;;8.00;100.00
11808;BME280;5961;42.640;23.380;2024-03-07T02:47:53;93751.56;;;8.06;100.00
11808;BME280;5961;42.640;23.380;2024-03-07T02:50:20;93753.63;;;8.01;100.00
11808;BME280;5961;42.640;23.380;2024-03-07T02:52:48;93763.19;;;7.93;100.00
11808;BME280;5961;42.640;23.380;2024-03-07T02:55:16;93732.66;;;7.46;100.00
11808;BME280;5961;42.640;23.380;2024-03-07T02:57:44;93761.75;;;7.46;100.00
11808;BME280;5961;42.640;23.380;2024-03-07T03:00:12;93763.28;;;7.47;100.00
11808;BME280;5961;42.640;23.380;2024-03-07T03:02:52;93754.81;;;7.33;100.00
11808;BME280;5961;42.640;23.380;2024-03-07T03:05:18;93758.00;;;7.09;100.00
11808;BME280;5961;42.640;23.380;2024-03-07T03:07:45;93758.31;;;7.07;100.00
11808;BME280;5961;42.640;23.380;2024-03-07T03:10:20;93756.31;;;7.04;100.00
11808;BME280;5961;42.640;23.380;2024-03-07T03:12:50;93778.25;;;6.96;100.00
11808;BME280;5961;42.640;23.380;2024-03-07T03:15:17;93760.56;;;6.88;100.00
11808;BME280;5961;42.640;23.380;2024-03-07T03:17:46;93776.41;;;6.88;100.00
11808;BME280;5961;42.640;23.380;2024-03-07T03:20:13;93774.53;;;6.80;100.00
11808;BME280;5961;42.640;23.380;2024-03-07T03:22:50;93760.88;;;6.78;100.00
11808;BME280;5961;42.640;23.380;2024-03-07T03:25:17;93771.28;;;6.83;100.00
11808;BME280;5961;42.640;23.380;2024-03-07T03:27:45;93770.19;;;6.84;100.00
11808;BME280;5961;42.640;23.380;2024-03-07T03:30:12;93771.59;;;6.90;100.00
11808;BME280;5961;42.640;23.380;2024-03-07T03:32:39;93758.69;;;6.80;100.00
11808;BME280;5961;42.640;23.380;2024-03-07T03:35:07;93780.28;;;6.91;100.00
11808;BME280;5961;42.640;23.380;2024-03-07T03:37:39;93785.25;;;6.92;100.00
11808;BME280;5961;42.640;23.380;2024-03-07T03:40:06;93781.22;;;6.95;100.00
11808;BME280;5961;42.640;23.380;2024-03-07T03:42:34;93786.03;;;6.93;100.00
11808;BME280;5961;42.640;23.380;2024-03-07T03:45:04;93793.16;;;6.92;100.00
11808;BME280;5961;42.640;23.380;2024-03-07T03:47:33;93810.63;;;6.76;100.00
11808;BME280;5961;42.640;23.380;2024-03-07T03:50:01;93794.44;;;6.78;100.00
11808;BME280;5961;42.640;23.380;2024-03-07T03:52:28;93774.53;;;6.80;100.00
11808;BME280;5961;42.640;23.380;2024-03-07T03:54:56;93753.72;;;6.87;100.00
11808;BME280;5961;42.640;23.380;2024-03-07T03:57:24;93741.59;;;6.86;100.00
11808;BME280;5961;42.640;23.380;2024-03-07T03:59:50;93747.88;;;6.73;100.00
11808;BME280;5961;42.640;23.380;2024-03-07T04:02:18;93764.81;;;6.63;100.00
11808;BME280;5961;42.640;23.380;2024-03-07T04:04:45;93765.13;;;6.53;100.00
11808;BME280;5961;42.640;23.380;2024-03-07T04:07:12;93775.25;;;6.43;100.00
11808;BME280;5961;42.640;23.380;2024-03-07T04:09:38;93769.81;;;6.31;100.00
11808;BME280;5961;42.640;23.380;2024-03-07T04:12:06;93762.34;;;6.33;100.00
11808;BME280;5961;42.640;23.380;2024-03-07T04:14:36;93772.63;;;6.34;100.00
11808;BME280;5961;42.640;23.380;2024-03-07T04:17:02;93775.38;;;6.38;100.00
11808;BME280;5961;42.640;23.380;2024-03-07T04:19:33;93768.56;;;6.28;100.00
11808;BME280;5961;42.640;23.380;2024-03-07T04:22:00;93782.84;;;6.36;100.00
11808;BME280;5961;42.640;23.380;2024-03-07T04:24:28;93772.44;;;6.31;100.00
11808;BME280;5961;42.640;23.380;2024-03-07T04:26:55;93785.81;;;6.43;100.00
11808;BME280;5961;42.640;23.380;2024-03-07T04:29:22;93779.41;;;6.44;100.00
11808;BME280;5961;42.640;23.380;2024-03-07T04:31:48;93783.44;;;6.50;100.00
11808;BME280;5961;42.640;23.380;2024-03-07T04:34:15;93778.34;;;6.45;100.00
11808;BME280;5961;42.640;23.380;2024-03-07T04:36:43;93782.06;;;6.44;100.00
11808;BME280;5961;42.640;23.380;2024-03-07T04:39:10;93776.31;;;6.42;100.00
11808;BME280;5961;42.640;23.380;2024-03-07T04:41:47;93786.25;;;6.36;100.00
11808;BME280;5961;42.640;23.380;2024-03-07T04:44:15;93781.78;;;6.37;100.00
11808;BME280;5961;42.640;23.380;2024-03-07T04:46:41;93775.38;;;6.29;100.00
11808;BME280;5961;42.640;23.380;2024-03-07T04:49:09;93780.66;;;6.29;100.00
11808;BME280;5961;42.640;23.380;2024-03-07T04:51:36;93781.44;;;6.21;100.00
11808;BME280;5961;42.640;23.380;2024-03-07T04:54:04;93784.38;;;6.11;100.00
11808;BME280;5961;42.640;23.380;2024-03-07T04:56:31;93786.25;;;6.11;100.00
11808;BME280;5961;42.640;23.380;2024-03-07T04:58:58;93787.34;;;6.10;100.00
11808;BME280;5961;42.640;23.380;2024-03-07T05:01:25;93790.78;;;6.10;100.00
11808;BME280;5961;42.640;23.380;2024-03-07T05:03:52;93793.09;;;6.03;100.00
11808;BME280;5961;42.640;23.380;2024-03-07T05:06:19;93789.50;;;6.07;100.00
11808;BME280;5961;42.640;23.380;2024-03-07T05:08:46;93804.59;;;6.16;100.00
11808;BME280;5961;42.640;23.380;2024-03-07T05:11:14;93813.28;;;6.16;100.00
11808;BME280;5961;42.640;23.380;2024-03-07T05:13:41;93811.72;;;6.15;100.00
11808;BME280;5961;42.640;23.380;2024-03-07T05:16:08;93811.56;;;6.12;100.00
11808;BME280;5961;42.640;23.380;2024-03-07T05:18:34;93813.28;;;6.16;100.00
11808;BME280;5961;42.640;23.380;2024-03-07T05:21:01;93804.25;;;6.08;100.00
11808;BME280;5961;42.640;23.380;2024-03-07T05:23:48;93807.06;;;6.21;100.00
11808;BME280;5961;42.640;23.380;2024-03-07T05:26:16;93802.41;;;6.18;100.00
11808;BME280;5961;42.640;23.380;2024-03-07T05:28:43;93797.28;;;6.30;100.00
11808;BME280;5961;42.640;23.380;2024-03-07T05:31:09;93784.72;;;6.27;100.00
11808;BME280;5961;42.640;23.380;2024-03-07T05:33:37;93806.28;;;6.29;100.00
11808;BME280;5961;42.640;23.380;2024-03-07T05:36:06;93809.06;;;6.24;100.00
11808;BME280;5961;42.640;23.380;2024-03-07T05:38:40;93799.75;;;6.18;100.00
11808;BME280;5961;42.640;23.380;2024-03-07T05:41:09;93805.03;;;6.26;100.00
11808;BME280;5961;42.640;23.380;2024-03-07T05:43:37;93807.53;;;6.23;100.00
11808;BME280;5961;42.640;23.380;2024-03-07T05:46:04;93809.69;;;6.21;100.00
11808;BME280;5961;42.640;23.380;2024-03-07T05:48:32;93810.63;;;6.16;100.00
11808;BME280;5961;42.640;23.380;2024-03-07T05:50:59;93811.72;;;6.15;100.00
11808;BME280;5961;42.640;23.380;2024-03-07T05:53:26;93812.97;;;6.18;100.00
11808;BME280;5961;42.640;23.380;2024-03-07T05:55:53;93813.41;;;6.20;100.00
11808;BME280;5961;42.640;23.380;2024-03-07T05:58:19;93812.34;;;6.21;100.00
11808;BME280;5961;42.640;23.380;2024-03-07T06:00:48;93808.47;;;6.27;100.00
11808;BME280;5961;42.640;23.380;2024-03-07T06:03:16;93830.50;;;6.31;100.00
11808;BME280;5961;42.640;23.380;2024-03-07T06:05:45;93830.34;;;6.36;100.00
11808;BME280;5961;42.640;23.380;2024-03-07T06:08:14;93829.72;;;6.39;100.00
11808;BME280;5961;42.640;23.380;2024-03-07T06:10:41;93829.41;;;6.32;100.00
11808;BME280;5961;42.640;23.380;2024-03-07T06:13:08;93835.63;;;6.44;100.00
11808;BME280;5961;42.640;23.380;2024-03-07T06:15:36;93831.59;;;6.47;100.00
11808;BME280;5961;42.640;23.380;2024-03-07T06:18:05;93826.00;;;6.48;100.00
11808;BME280;5961;42.640;23.380;2024-03-07T06:20:33;93726.91;;;5.65;100.00
11808;BME280;5961;42.640;23.380;2024-03-07T06:23:00;93833.59;;;6.33;100.00
11808;BME280;5961;42.640;23.380;2024-03-07T06:25:29;93843.88;;;6.43;100.00
11808;BME280;5961;42.640;23.380;2024-03-07T06:28:02;93851.78;;;6.51;100.00
11808;BME280;5961;42.640;23.380;2024-03-07T06:30:34;93842.31;;;6.42;100.00
11808;BME280;5961;42.640;23.380;2024-03-07T06:33:03;93862.50;;;6.46;100.00
11808;BME280;5961;42.640;23.380;2024-03-07T06:35:31;93854.72;;;6.50;100.00
11808;BME280;5961;42.640;23.380;2024-03-07T06:37:57;93847.91;;;6.49;100.00
11808;BME280;5961;42.640;23.380;2024-03-07T06:40:24;93848.19;;;6.56;100.00
11808;BME280;5961;42.640;23.380;2024-03-07T06:42:51;93861.41;;;6.56;100.00
11808;BME280;5961;42.640;23.380;2024-03-07T06:45:18;93851.94;;;6.55;100.00
11808;BME280;5961;42.640;23.380;2024-03-07T06:47:45;93850.22;;;6.59;100.00
11808;BME280;5961;42.640;23.380;2024-03-07T06:50:12;93853.81;;;6.63;100.00
11808;BME280;5961;42.640;23.380;2024-03-07T06:52:46;93860.66;;;6.55;100.00
11808;BME280;5961;42.640;23.380;2024-03-07T06:55:14;93855.03;;;6.57;100.00
11808;BME280;5961;42.640;23.380;2024-03-07T06:57:42;93857.53;;;6.53;100.00
11808;BME280;5961;42.640;23.380;2024-03-07T07:00:09;93843.25;;;6.54;100.00
11808;BME280;5961;42.640;23.380;2024-03-07T07:02:37;93842.31;;;6.59;100.00
11808;BME280;5961;42.640;23.380;2024-03-07T07:05:05;93845.56;;;6.73;100.00
11808;BME280;5961;42.640;23.380;2024-03-07T07:07:36;93843.84;;;6.77;100.00
11808;BME280;5961;42.640;23.380;2024-03-07T07:10:05;93825.69;;;6.76;100.00
11808;BME280;5961;42.640;23.380;2024-03-07T07:12:34;93831.28;;;6.83;100.00
11808;BME280;5961;42.640;23.380;2024-03-07T07:15:01;93850.81;;;6.99;100.00
11808;BME280;5961;42.640;23.380;2024-03-07T07:17:28;93829.53;;;6.95;100.00
11808;BME280;5961;42.640;23.380;2024-03-07T07:19:57;93824.38;;;7.07;100.00
11808;BME280;5961;42.640;23.380;2024-03-07T07:22:24;93795.03;;;6.83;100.00
11808;BME280;5961;42.640;23.380;2024-03-07T07:24:51;93826.09;;;7.03;100.00
11808;BME280;5961;42.640;23.380;2024-03-07T07:27:19;93812.91;;;6.95;100.00
11808;BME280;5961;42.640;23.380;2024-03-07T07:29:46;93812.91;;;6.95;100.00
11808;BME280;5961;42.640;23.380;2024-03-07T07:32:13;93838.72;;;6.98;100.00
11808;BME280;5961;42.640;23.380;2024-03-07T07:34:40;93827.06;;;6.90;100.00
11808;BME280;5961;42.640;23.380;2024-03-07T07:37:08;93828.41;;;7.05;100.00
11808;BME280;5961;42.640;23.380;2024-03-07T07:39:35;93829.34;;;7.09;100.00
11808;BME280;5961;42.640;23.380;2024-03-07T07:42:02;93827.16;;;7.11;100.00
11808;BME280;5961;42.640;23.380;2024-03-07T07:44:30;93825.41;;;7.24;100.00
11808;BME280;5961;42.640;23.380;2024-03-07T07:46:58;93829.78;;;7.19;100.00
11808;BME280;5961;42.640;23.380;2024-03-07T07:49:25;93830.84;;;7.27;100.00
11808;BME280;5961;42.640;23.380;2024-03-07T07:51:52;93827.09;;;7.37;100.00
11808;BME280;5961;42.640;23.380;2024-03-07T07:54:19;93821.69;;;7.25;100.00
11808;BME280;5961;42.640;23.380;2024-03-07T07:56:46;93817.31;;;7.29;100.00
11808;BME280;5961;42.640;23.380;2024-03-07T07:59:14;93812.03;;;7.29;100.00
11808;BME280;5961;42.640;23.380;2024-03-07T08:01:42;93809.41;;;7.20;100.00
11808;BME280;5961;42.640;23.380;2024-03-07T08:04:08;93829.63;;;7.25;100.00
11808;BME280;5961;42.640;23.380;2024-03-07T08:06:36;93824.00;;;7.26;100.00
11808;BME280;5961;42.640;23.380;2024-03-07T08:09:03;93818.38;;;7.36;100.00
11808;BME280;5961;42.640;23.380;2024-03-07T08:11:35;93818.88;;;7.30;100.00
11808;BME280;5961;42.640;23.380;2024-03-07T08:14:02;93846.66;;;7.44;100.00
11808;BME280;5961;42.640;23.380;2024-03-07T08:16:28;93842.16;;;7.45;100.00
11808;BME280;5961;42.640;23.380;2024-03-07T08:18:57;93849.44;;;7.48;100.00
11808;BME280;5961;42.640;23.380;2024-03-07T08:21:23;93850.63;;;7.59;100.00
11808;BME280;5961;42.640;23.380;2024-03-07T08:23:50;93852.34;;;7.63;100.00
11808;BME280;5961;42.640;23.380;2024-03-07T08:26:17;93855.13;;;7.67;100.00
11808;BME280;5961;42.640;23.380;2024-03-07T08:28:43;93869.44;;;7.66;100.00
11808;BME280;5961;42.640;23.380;2024-03-07T08:31:10;93869.00;;;7.64;100.00
11808;BME280;5961;42.640;23.380;2024-03-07T08:33:38;93866.63;;;7.71;100.00
11808;BME280;5961;42.640;23.380;2024-03-07T08:36:06;93871.50;;;7.60;100.00
11808;BME280;5961;42.640;23.380;2024-03-07T08:38:35;93864.78;;;7.63;100.00
11808;BME280;5961;42.640;23.380;2024-03-07T08:41:03;93881.28;;;7.60;100.00
11808;BME280;5961;42.640;23.380;2024-03-07T08:43:30;93877.38;;;7.66;100.00
11808;BME280;5961;42.640;23.380;2024-03-07T08:45:56;93882.03;;;7.69;100.00
11808;BME280;5961;42.640;23.380;2024-03-07T08:48:23;93882.97;;;7.73;100.00
11808;BME280;5961;42.640;23.380;2024-03-07T08:50:50;93896.00;;;7.78;100.00
11808;BME280;5961;42.640;23.380;2024-03-07T08:53:18;93891.81;;;7.77;100.00
11808;BME280;5961;42.640;23.380;2024-03-07T08:55:44;93894.28;;;7.82;100.00
11808;BME280;5961;42.640;23.380;2024-03-07T08:58:11;93894.00;;;7.75;100.00
11808;BME280;5961;42.640;23.380;2024-03-07T09:00:38;93889.34;;;7.72;100.00
11808;BME280;5961;42.640;23.380;2024-03-07T09:03:04;93890.59;;;7.66;100.00
11808;BME280;5961;42.640;23.380;2024-03-07T09:05:35;93891.06;;;7.68;100.00
11808;BME280;5961;42.640;23.380;2024-03-07T09:08:02;93898.84;;;7.73;100.00
11808;BME280;5961;42.640;23.380;2024-03-07T09:10:30;93898.94;;;7.85;100.00
11808;BME280;5961;42.640;23.380;2024-03-07T09:12:57;93899.44;;;7.79;100.00
11808;BME280;5961;42.640;23.380;2024-03-07T09:15:23;93897.88;;;7.78;100.00
11808;BME280;5961;42.640;23.380;2024-03-07T09:17:50;93896.47;;;7.80;100.00
11808;BME280;5961;42.640;23.380;2024-03-07T09:20:17;93892.88;;;7.85;100.00
11808;BME280;5961;42.640;23.380;2024-03-07T09:22:45;93886.06;;;7.75;100.00
11808;BME280;5961;42.640;23.380;2024-03-07T09:25:13;93907.34;;;7.87;100.00
11808;BME280;5961;42.640;23.380;2024-03-07T09:27:41;93910.44;;;7.89;100.00
11808;BME280;5961;42.640;23.380;2024-03-07T09:30:08;93910.31;;;7.77;100.00
11808;BME280;5961;42.640;23.380;2024-03-07T09:35:22;93903.28;;;7.90;100.00
11808;BME280;5961;42.640;23.380;2024-03-07T09:37:49;93902.84;;;7.79;100.00
11808;BME280;5961;42.640;23.380;2024-03-07T09:40:16;93903.13;;;7.86;100.00
11808;BME280;5961;42.640;23.380;2024-03-07T09:42:45;93902.72;;;7.76;100.00
11808;BME280;5961;42.640;23.380;2024-03-07T09:45:17;93898.00;;;7.81;100.00
11808;BME280;5961;42.640;23.380;2024-03-07T09:47:47;93898.13;;;7.93;100.00
11808;BME280;5961;42.640;23.380;2024-03-07T09:50:16;93859.66;;;7.66;100.00
11808;BME280;5961;42.640;23.380;2024-03-07T09:52:47;93908.06;;;7.96;100.00
11808;BME280;5961;42.640;23.380;2024-03-07T09:55:16;93902.44;;;8.06;100.00
11808;BME280;5961;42.640;23.380;2024-03-07T09:57:43;93893.31;;;8.16;100.00
11808;BME280;5961;42.640;23.380;2024-03-07T10:00:13;93910.69;;;8.34;100.00
11808;BME280;5961;42.640;23.380;2024-03-07T10:02:50;93904.25;;;8.44;100.00
11808;BME280;5961;42.640;23.380;2024-03-07T10:05:19;93879.06;;;8.38;100.00
11808;BME280;5961;42.640;23.380;2024-03-07T10:07:48;93893.56;;;8.61;100.00
11808;BME280;5961;42.640;23.380;2024-03-07T10:10:15;93883.72;;;8.61;100.00
11808;BME280;5961;42.640;23.380;2024-03-07T10:12:43;93891.22;;;8.80;100.00
11808;BME280;5961;42.640;23.380;2024-03-07T10:15:11;93889.50;;;8.84;100.00
11808;BME280;5961;42.640;23.380;2024-03-07T10:17:39;93899.72;;;8.94;100.00
11808;BME280;5961;42.640;23.380;2024-03-07T10:20:07;93890.47;;;9.00;99.87
11808;BME280;5961;42.640;23.380;2024-03-07T10:22:39;93887.59;;;9.05;99.22
11808;BME280;5961;42.640;23.380;2024-03-07T10:25:06;93896.13;;;9.11;97.74
11808;BME280;5961;42.640;23.380;2024-03-07T10:27:36;93896.50;;;9.21;97.66
11808;BME280;5961;42.640;23.380;2024-03-07T10:30:03;93890.78;;;9.31;97.11
11808;BME280;5961;42.640;23.380;2024-03-07T10:32:34;93875.75;;;9.35;96.73
11808;BME280;5961;42.640;23.380;2024-03-07T10:35:01;93873.81;;;9.45;95.92
11808;BME280;5961;42.640;23.380;2024-03-07T10:37:28;93882.44;;;9.54;95.60
11808;BME280;5961;42.640;23.380;2024-03-07T10:39:56;93880.34;;;9.59;95.75
11808;BME280;5961;42.640;23.380;2024-03-07T10:42:27;93875.28;;;9.66;95.49
11808;BME280;5961;42.640;23.380;2024-03-07T10:45:01;93884.91;;;9.71;95.21
11808;BME280;5961;42.640;23.380;2024-03-07T10:47:31;93884.47;;;9.69;96.75
11808;BME280;5961;42.640;23.380;2024-03-07T10:50:06;93882.25;;;9.71;97.09
11808;BME280;5961;42.640;23.380;2024-03-07T10:52:45;93880.47;;;9.63;96.78
11808;BME280;5961;42.640;23.380;2024-03-07T10:55:21;93878.59;;;9.63;97.22
11808;BME280;5961;42.640;23.380;2024-03-07T10:57:51;93873.59;;;9.62;96.71
11808;BME280;5961;42.640;23.380;2024-03-07T11:00:21;93868.53;;;9.57;96.56
11808;BME280;5961;42.640;23.380;2024-03-07T11:03:01;93861.22;;;9.54;97.17
11808;BME280;5961;42.640;23.380;2024-03-07T11:05:33;93830.66;;;9.23;96.29
11808;BME280;5961;42.640;23.380;2024-03-07T11:08:01;93870.16;;;9.49;96.37
11808;BME280;5961;42.640;23.380;2024-03-07T11:10:32;93866.09;;;9.52;96.19
11808;BME280;5961;42.640;23.380;2024-03-07T11:13:00;93860.97;;;9.47;96.01
11808;BME280;5961;42.640;23.380;2024-03-07T11:15:28;93868.81;;;9.43;96.53
11808;BME280;5961;42.640;23.380;2024-03-07T11:17:55;93863.41;;;9.40;97.48
11808;BME280;5961;42.640;23.380;2024-03-07T11:20:25;93874.22;;;9.34;98.16
11808;BME280;5961;42.640;23.380;2024-03-07T11:22:54;93866.22;;;9.22;99.43
11808;BME280;5961;42.640;23.380;2024-03-07T11:25:21;93839.66;;;9.10;99.79
11808;BME280;5961;42.640;23.380;2024-03-07T11:27:52;93852.28;;;9.13;100.00
11808;BME280;5961;42.640;23.380;2024-03-07T11:30:21;93860.88;;;9.10;99.89
11808;BME280;5961;42.640;23.380;2024-03-07T11:32:49;93852.78;;;9.07;100.00
11808;BME280;5961;42.640;23.380;2024-03-07T11:35:19;93857.44;;;9.10;100.00
11808;BME280;5961;42.640;23.380;2024-03-07T11:37:57;93861.53;;;9.07;100.00
11808;BME280;5961;42.640;23.380;2024-03-07T11:40:51;93854.22;;;9.04;100.00
11808;BME280;5961;42.640;23.380;2024-03-07T11:43:22;93855.34;;;9.03;100.00
11808;BME280;5961;42.640;23.380;2024-03-07T11:45:51;93847.41;;;9.03;100.00
11808;BME280;5961;42.640;23.380;2024-03-07T11:48:18;93848.78;;;9.01;100.00
11808;BME280;5961;42.640;23.380;2024-03-07T11:50:47;93855.00;;;9.05;100.00
11808;BME280;5961;42.640;23.380;2024-03-07T11:53:15;93847.19;;;9.08;100.00
11808;BME280;5961;42.640;23.380;2024-03-07T11:55:43;93843.63;;;9.04;100.00
11808;BME280;5961;42.640;23.380;2024-03-07T11:58:12;93840.13;;;9.12;100.00
11808;BME280;5961;42.640;23.380;2024-03-07T12:00:40;93843.22;;;9.14;100.00
11808;BME280;5961;42.640;23.380;2024-03-07T12:03:10;93798.00;;;8.99;100.00
11808;BME280;5961;42.640;23.380;2024-03-07T12:05:41;93830.78;;;9.27;99.96
11808;BME280;5961;42.640;23.380;2024-03-07T12:08:09;93824.03;;;9.29;99.02
11808;BME280;5961;42.640;23.380;2024-03-07T12:10:38;93830.25;;;9.33;98.37
11808;BME280;5961;42.640;23.380;2024-03-07T12:13:06;93830.03;;;9.38;97.58
11808;BME280;5961;42.640;23.380;2024-03-07T12:15:33;93822.59;;;9.32;96.48
11808;BME280;5961;42.640;23.380;2024-03-07T12:18:01;93795.13;;;9.04;95.88
11808;BME280;5961;42.640;23.380;2024-03-07T12:20:35;93827.78;;;9.28;96.37
11808;BME280;5961;42.640;23.380;2024-03-07T12:23:02;93829.34;;;9.29;96.64
11808;BME280;5961;42.640;23.380;2024-03-07T12:25:31;93827.78;;;9.28;97.42
11808;BME280;5961;42.640;23.380;2024-03-07T12:28:07;93828.69;;;9.32;97.38
11808;BME280;5961;42.640;23.380;2024-03-07T12:30:47;93823.38;;;9.32;97.75
11808;BME280;5961;42.640;23.380;2024-03-07T12:33:15;93824.03;;;9.29;97.87
11808;BME280;5961;42.640;23.380;2024-03-07T12:35:42;93827.13;;;9.31;98.38
11808;BME280;5961;42.640;23.380;2024-03-07T12:38:09;93821.69;;;9.28;98.42
11808;BME280;5961;42.640;23.380;2024-03-07T12:40:39;93823.16;;;9.37;98.08
11808;BME280;5961;42.640;23.380;2024-03-07T12:43:15;93819.19;;;9.44;97.95
11808;BME280;5961;42.640;23.380;2024-03-07T12:45:44;93819.66;;;9.46;98.72
11808;BME280;5961;42.640;23.380;2024-03-07T12:48:11;93820.88;;;9.48;98.29
11808;BME280;5961;42.640;23.380;2024-03-07T12:50:40;93803.09;;;9.49;96.86
11808;BME280;5961;42.640;23.380;2024-03-07T12:53:06;93825.19;;;9.65;95.89
11808;BME280;5961;42.640;23.380;2024-03-07T12:55:37;93832.38;;;9.76;93.55
11808;BME280;5961;42.640;23.380;2024-03-07T12:58:07;93827.97;;;9.80;92.58
11808;BME280;5961;42.640;23.380;2024-03-07T13:00:36;93828.06;;;9.84;92.10
11808;BME280;5961;42.640;23.380;2024-03-07T13:03:04;93819.09;;;9.88;93.05
11808;BME280;5961;42.640;23.380;2024-03-07T13:05:31;93824.41;;;9.88;93.00
11808;BME280;5961;42.640;23.380;2024-03-07T13:07:58;93821.75;;;9.88;92.97
11808;BME280;5961;42.640;23.380;2024-03-07T13:10:24;93829.19;;;9.95;92.61